sensor_id;sensor_type;location;lat;lon;timestamp;temperature;humidity
13521;DHT22;6832;51.186;3.236;2024-01-15T17:25:06;8.30;56.70
13521;DHT22;6832;51.186;3.236;2024-01-15T17:27:36;8.40;58.50
13521;DHT22;6832;51.186;3.236;2024-01-15T17:30:04;8.60;59.40
13521;DHT22;6832;51.186;3.236;2024-01-15T17:32:31;8.80;60.20
13521;DHT22;6832;51.186;3.236;2024-01-15T17:34:58;9.00;61.30
13521;DHT22;6832;51.186;3.236;2024-01-15T17:37:25;9.20;62.30
13521;DHT22;6832;51.186;3.236;2024-01-15T17:39:52;9.50;63.20
13521;DHT22;6832;51.186;3.236;2024-01-15T17:42:20;9.90;64.40
13521;DHT22;6832;51.186;3.236;2024-01-15T17:44:48;10.20;64.10
13521;DHT22;6832;51.186;3.236;2024-01-15T17:47:17;10.50;64.50
13521;DHT22;6832;51.186;3.236;2024-01-15T17:49:43;10.90;65.20
13521;DHT22;6832;51.186;3.236;2024-01-15T17:52:10;11.30;65.70
13521;DHT22;6832;51.186;3.236;2024-01-15T17:54:37;11.80;66.20
13521;DHT22;6832;51.186;3.236;2024-01-15T17:57:04;12.20;66.50
13521;DHT22;6832;51.186;3.236;2024-01-15T17:59:33;12.60;66.80
13521;DHT22;6832;51.186;3.236;2024-01-15T18:02:00;13.00;67.10
13521;DHT22;6832;51.186;3.236;2024-01-15T18:04:27;13.40;67.10
13521;DHT22;6832;51.186;3.236;2024-01-15T18:06:54;13.80;67.20
13521;DHT22;6832;51.186;3.236;2024-01-15T18:09:21;14.20;67.20
13521;DHT22;6832;51.186;3.236;2024-01-15T18:11:48;14.60;67.40
13521;DHT22;6832;51.186;3.236;2024-01-15T18:14:15;15.00;67.40
13521;DHT22;6832;51.186;3.236;2024-01-15T18:16:43;15.40;67.40
13521;DHT22;6832;51.186;3.236;2024-01-15T18:19:14;15.70;67.40
13521;DHT22;6832;51.186;3.236;2024-01-15T18:21:43;16.10;67.20
13521;DHT22;6832;51.186;3.236;2024-01-15T18:24:09;16.40;67.60
13521;DHT22;6832;51.186;3.236;2024-01-15T18:26:36;16.80;67.50
13521;DHT22;6832;51.186;3.236;2024-01-15T18:29:05;17.10;67.50
13521;DHT22;6832;51.186;3.236;2024-01-15T18:31:32;17.30;67.40
13521;DHT22;6832;51.186;3.236;2024-01-15T18:34:00;17.70;67.60
13521;DHT22;6832;51.186;3.236;2024-01-15T18:36:27;18.00;67.70
13521;DHT22;6832;51.186;3.236;2024-01-15T18:38:54;18.20;67.60
13521;DHT22;6832;51.186;3.236;2024-01-15T18:41:23;18.50;67.50
13521;DHT22;6832;51.186;3.236;2024-01-15T18:43:50;18.70;67.50
13521;DHT22;6832;51.186;3.236;2024-01-15T18:46:18;19.00;67.60
13521;DHT22;6832;51.186;3.236;2024-01-15T18:48:46;19.20;67.60
13521;DHT22;6832;51.186;3.236;2024-01-15T18:51:20;19.40;67.50
13521;DHT22;6832;51.186;3.236;2024-01-15T18:53:47;19.70;68.00
13521;DHT22;6832;51.186;3.236;2024-01-15T18:56:14;19.90;67.60
13521;DHT22;6832;51.186;3.236;2024-01-15T18:58:41;20.10;67.60
13521;DHT22;6832;51.186;3.236;2024-01-15T19:01:09;20.30;67.70
13521;DHT22;6832;51.186;3.236;2024-01-15T19:03:36;20.50;67.70
13521;DHT22;6832;51.186;3.236;2024-01-15T19:06:04;20.70;67.70
13521;DHT22;6832;51.186;3.236;2024-01-15T19:08:33;20.80;66.50
13521;DHT22;6832;51.186;3.236;2024-01-15T19:11:00;21.00;66.70
13521;DHT22;6832;51.186;3.236;2024-01-15T19:13:26;21.10;66.90
13521;DHT22;6832;51.186;3.236;2024-01-15T19:15:53;21.30;66.60
13521;DHT22;6832;51.186;3.236;2024-01-15T19:18:20;21.50;66.60
13521;DHT22;6832;51.186;3.236;2024-01-15T19:20:47;21.60;66.70
13521;DHT22;6832;51.186;3.236;2024-01-15T19:23:14;21.70;66.70
13521;DHT22;6832;51.186;3.236;2024-01-15T19:25:42;21.80;66.60
13521;DHT22;6832;51.186;3.236;2024-01-15T19:28:09;22.00;66.60
13521;DHT22;6832;51.186;3.236;2024-01-15T19:30:36;22.10;66.50
13521;DHT22;6832;51.186;3.236;2024-01-15T19:33:04;22.20;66.20
13521;DHT22;6832;51.186;3.236;2024-01-15T19:35:31;22.30;65.90
13521;DHT22;6832;51.186;3.236;2024-01-15T19:37:58;22.40;65.70
13521;DHT22;6832;51.186;3.236;2024-01-15T19:40:27;22.50;65.60
13521;DHT22;6832;51.186;3.236;2024-01-15T19:42:55;22.60;65.40
13521;DHT22;6832;51.186;3.236;2024-01-15T19:45:22;22.70;65.00
13521;DHT22;6832;51.186;3.236;2024-01-15T19:47:49;22.80;64.70
13521;DHT22;6832;51.186;3.236;2024-01-15T19:50:17;22.90;65.20
13521;DHT22;6832;51.186;3.236;2024-01-15T19:52:44;23.00;64.30
13521;DHT22;6832;51.186;3.236;2024-01-15T19:55:11;23.10;64.20
13521;DHT22;6832;51.186;3.236;2024-01-15T19:57:38;23.10;63.50
13521;DHT22;6832;51.186;3.236;2024-01-15T20:00:08;23.20;63.40
13521;DHT22;6832;51.186;3.236;2024-01-15T20:02:35;23.30;63.20
13521;DHT22;6832;51.186;3.236;2024-01-15T20:05:01;23.40;63.20
13521;DHT22;6832;51.186;3.236;2024-01-15T20:07:28;23.50;62.90
13521;DHT22;6832;51.186;3.236;2024-01-15T20:09:55;23.50;62.50
13521;DHT22;6832;51.186;3.236;2024-01-15T20:12:22;23.60;62.30
13521;DHT22;6832;51.186;3.236;2024-01-15T20:14:49;23.60;62.00
13521;DHT22;6832;51.186;3.236;2024-01-15T20:17:17;23.70;62.10
13521;DHT22;6832;51.186;3.236;2024-01-15T20:19:44;23.70;62.00
13521;DHT22;6832;51.186;3.236;2024-01-15T20:22:11;23.80;62.20
13521;DHT22;6832;51.186;3.236;2024-01-15T20:24:39;23.80;62.10
13521;DHT22;6832;51.186;3.236;2024-01-15T20:27:06;23.80;61.80
13521;DHT22;6832;51.186;3.236;2024-01-15T20:29:33;23.90;61.60
13521;DHT22;6832;51.186;3.236;2024-01-15T20:32:00;24.00;61.50
13521;DHT22;6832;51.186;3.236;2024-01-15T20:34:29;24.00;61.30
13521;DHT22;6832;51.186;3.236;2024-01-15T20:36:57;24.10;61.70
13521;DHT22;6832;51.186;3.236;2024-01-15T20:39:23;24.10;61.00
13521;DHT22;6832;51.186;3.236;2024-01-15T20:41:50;24.10;60.70
13521;DHT22;6832;51.186;3.236;2024-01-15T20:44:17;24.20;60.70
13521;DHT22;6832;51.186;3.236;2024-01-15T20:46:46;24.20;60.40
13521;DHT22;6832;51.186;3.236;2024-01-15T20:49:13;24.20;60.20
13521;DHT22;6832;51.186;3.236;2024-01-15T20:51:41;24.20;60.10
13521;DHT22;6832;51.186;3.236;2024-01-15T20:54:08;24.20;59.80
13521;DHT22;6832;51.186;3.236;2024-01-15T20:56:35;24.30;59.80
13521;DHT22;6832;51.186;3.236;2024-01-15T20:59:02;24.30;59.60
13521;DHT22;6832;51.186;3.236;2024-01-15T21:01:29;24.30;59.60
13521;DHT22;6832;51.186;3.236;2024-01-15T21:03:56;24.30;59.40
13521;DHT22;6832;51.186;3.236;2024-01-15T21:06:23;24.30;59.20
13521;DHT22;6832;51.186;3.236;2024-01-15T21:08:51;24.40;59.20
13521;DHT22;6832;51.186;3.236;2024-01-15T21:11:18;24.40;59.20
13521;DHT22;6832;51.186;3.236;2024-01-15T21:13:45;24.40;59.20
13521;DHT22;6832;51.186;3.236;2024-01-15T21:16:12;24.40;59.20
13521;DHT22;6832;51.186;3.236;2024-01-15T21:18:40;24.40;59.00
13521;DHT22;6832;51.186;3.236;2024-01-15T21:21:07;24.40;58.80
13521;DHT22;6832;51.186;3.236;2024-01-15T21:23:34;24.40;58.80
13521;DHT22;6832;51.186;3.236;2024-01-15T21:26:02;24.40;58.60
13521;DHT22;6832;51.186;3.236;2024-01-15T21:28:29;24.40;58.40
13521;DHT22;6832;51.186;3.236;2024-01-15T21:30:56;24.40;58.50
13521;DHT22;6832;51.186;3.236;2024-01-15T21:33:25;24.40;58.50
13521;DHT22;6832;51.186;3.236;2024-01-15T21:35:53;24.40;58.20
13521;DHT22;6832;51.186;3.236;2024-01-15T21:38:20;24.40;58.10
13521;DHT22;6832;51.186;3.236;2024-01-15T21:40:47;24.40;58.10
13521;DHT22;6832;51.186;3.236;2024-01-15T21:43:15;24.40;58.00
13521;DHT22;6832;51.186;3.236;2024-01-15T21:45:42;24.40;57.80
13521;DHT22;6832;51.186;3.236;2024-01-15T21:48:09;24.40;57.80
13521;DHT22;6832;51.186;3.236;2024-01-15T21:50:36;24.50;57.80
13521;DHT22;6832;51.186;3.236;2024-01-15T21:53:03;24.40;57.70
13521;DHT22;6832;51.186;3.236;2024-01-15T21:55:30;24.50;57.70
13521;DHT22;6832;51.186;3.236;2024-01-15T21:57:56;24.50;56.60
13521;DHT22;6832;51.186;3.236;2024-01-15T22:00:25;24.40;56.00
13521;DHT22;6832;51.186;3.236;2024-01-15T22:02:53;24.40;56.20
13521;DHT22;6832;51.186;3.236;2024-01-15T22:05:19;24.40;56.60
13521;DHT22;6832;51.186;3.236;2024-01-15T22:07:46;24.40;56.90
13521;DHT22;6832;51.186;3.236;2024-01-15T22:10:14;24.40;56.90
13521;DHT22;6832;51.186;3.236;2024-01-15T22:12:41;24.40;57.00
13521;DHT22;6832;51.186;3.236;2024-01-15T22:15:08;24.40;57.00
13521;DHT22;6832;51.186;3.236;2024-01-15T22:17:37;24.40;57.00
13521;DHT22;6832;51.186;3.236;2024-01-15T22:20:06;24.40;57.00
13521;DHT22;6832;51.186;3.236;2024-01-15T22:22:34;24.40;57.00
13521;DHT22;6832;51.186;3.236;2024-01-15T22:25:01;24.40;57.00
13521;DHT22;6832;51.186;3.236;2024-01-15T22:27:28;24.50;57.00
13521;DHT22;6832;51.186;3.236;2024-01-15T22:29:55;24.40;56.90
13521;DHT22;6832;51.186;3.236;2024-01-15T22:32:22;24.50;56.80
13521;DHT22;6832;51.186;3.236;2024-01-15T22:34:50;24.50;56.80
13521;DHT22;6832;51.186;3.236;2024-01-15T22:37:17;24.40;56.50
13521;DHT22;6832;51.186;3.236;2024-01-15T22:39:44;24.50;56.70
13521;DHT22;6832;51.186;3.236;2024-01-15T22:42:11;24.50;56.70
13521;DHT22;6832;51.186;3.236;2024-01-15T22:44:38;24.40;56.50
13521;DHT22;6832;51.186;3.236;2024-01-15T22:47:05;24.50;56.60
13521;DHT22;6832;51.186;3.236;2024-01-15T22:49:32;24.50;56.50
13521;DHT22;6832;51.186;3.236;2024-01-15T22:52:01;24.50;56.40
13521;DHT22;6832;51.186;3.236;2024-01-15T22:54:28;24.50;56.30
13521;DHT22;6832;51.186;3.236;2024-01-15T22:56:55;24.50;56.40
13521;DHT22;6832;51.186;3.236;2024-01-15T22:59:22;24.50;56.30
13521;DHT22;6832;51.186;3.236;2024-01-15T23:01:49;24.50;56.90
13521;DHT22;6832;51.186;3.236;2024-01-15T23:04:17;24.50;56.20
13521;DHT22;6832;51.186;3.236;2024-01-15T23:06:44;24.50;56.00
13521;DHT22;6832;51.186;3.236;2024-01-15T23:09:13;24.50;56.00
13521;DHT22;6832;51.186;3.236;2024-01-15T23:11:40;24.50;55.90
13521;DHT22;6832;51.186;3.236;2024-01-15T23:14:07;24.50;55.90
13521;DHT22;6832;51.186;3.236;2024-01-15T23:16:34;24.50;55.90
13521;DHT22;6832;51.186;3.236;2024-01-15T23:19:01;24.60;55.70
13521;DHT22;6832;51.186;3.236;2024-01-15T23:21:28;24.60;55.70
13521;DHT22;6832;51.186;3.236;2024-01-15T23:23:55;24.60;55.80
13521;DHT22;6832;51.186;3.236;2024-01-15T23:26:24;24.60;55.80
13521;DHT22;6832;51.186;3.236;2024-01-15T23:28:50;24.60;55.50
13521;DHT22;6832;51.186;3.236;2024-01-15T23:31:17;24.60;55.60
13521;DHT22;6832;51.186;3.236;2024-01-15T23:33:44;24.60;55.60
13521;DHT22;6832;51.186;3.236;2024-01-15T23:36:11;24.60;55.50
13521;DHT22;6832;51.186;3.236;2024-01-15T23:38:38;24.60;55.50
13521;DHT22;6832;51.186;3.236;2024-01-15T23:41:06;24.60;55.40
13521;DHT22;6832;51.186;3.236;2024-01-15T23:43:38;24.60;55.30
13521;DHT22;6832;51.186;3.236;2024-01-15T23:46:05;24.60;55.10
13521;DHT22;6832;51.186;3.236;2024-01-15T23:48:32;24.60;55.30
13521;DHT22;6832;51.186;3.236;2024-01-15T23:50:59;24.60;55.20
13521;DHT22;6832;51.186;3.236;2024-01-15T23:53:28;24.60;55.20
13521;DHT22;6832;51.186;3.236;2024-01-15T23:55:55;24.60;55.10
13521;DHT22;6832;51.186;3.236;2024-01-15T23:58:22;24.60;55.00
